Time;durP1;ratioP1;P1;durP2;ratioP2;P2;SDS_P1;SDS_P2;PMS_P1;PMS_P2;Temp;Humidity;BMP_temperature;BMP_pressure;BME280_temperature;BME280_humidity;BME280_pressure;Samples;Min_cycle;Max_cycle;Signal;HPM_P1;HPM_P2
2022/01/15 00:02:17;;;;;;;116.90;19.80;;;;;;;;;;5049091;28;20417;-76
2022/01/15 00:04:42;;;;;;;102.55;20.42;;;;;;;;;;5051864;28;20046;-77
2022/01/15 00:07:08;;;;;;;118.82;21.15;;;;;;;;;;5056003;28;20044;-77
2022/01/15 00:09:33;;;;;;;158.20;23.60;;;;;;;;;;5054064;28;20614;-77
2022/01/15 00:11:58;;;;;;;154.80;21.92;;;;;;;;;;5053442;28;20055;-77
2022/01/15 00:14:38;;;;;;;112.63;21.48;;;;;;;;;;5056786;28;20028;-77
2022/01/15 00:17:05;;;;;;;88.18;21.33;;;;;;;;;;5066074;28;20485;-76
2022/01/15 00:19:41;;;;;;;110.68;22.10;;;;;;;;;;5060861;28;20046;-77
2022/01/15 00:22:12;;;;;;;120.55;22.27;;;;;;;;;;5055719;28;20120;-77
2022/01/15 00:24:38;;;;;;;190.15;23.65;;;;;;;;;;5050010;28;20544;-77
2022/01/15 00:27:05;;;;;;;113.93;20.40;;;;;;;;;;5055223;28;20028;-77
2022/01/15 00:29:31;;;;;;;108.13;23.08;;;;;;;;;;5055226;28;20128;-76
2022/01/15 00:31:57;;;;;;;101.25;20.95;;;;;;;;;;5054067;28;20094;-76
2022/01/15 00:34:23;;;;;;;112.90;20.67;;;;;;;;;;5052798;28;20037;-76
2022/01/15 00:36:48;;;;;;;92.43;21.13;;;;;;;;;;5054137;28;20047;-77
2022/01/15 00:39:13;;;;;;;101.95;20.60;;;;;;;;;;5055288;28;20454;-77
2022/01/15 00:41:39;;;;;;;109.78;20.88;;;;;;;;;;5050345;28;20029;-77
2022/01/15 00:44:04;;;;;;;169.57;23.58;;;;;;;;;;5047883;28;20398;-77
2022/01/15 00:46:30;;;;;;;128.80;21.88;;;;;;;;;;5059373;28;20611;-77
2022/01/15 00:48:55;;;;;;;145.85;21.40;;;;;;;;;;5056253;28;20024;-77
2022/01/15 00:51:20;;;;;;;107.35;21.13;;;;;;;;;;5053956;28;20032;-77
2022/01/15 00:53:46;;;;;;;157.70;22.40;;;;;;;;;;5055640;28;20040;-76
2022/01/15 00:56:11;;;;;;;123.57;22.02;;;;;;;;;;5053492;28;20020;-76
2022/01/15 00:58:36;;;;;;;136.80;22.50;;;;;;;;;;5055869;28;20072;-76
2022/01/15 01:01:02;;;;;;;126.30;22.25;;;;;;;;;;5052859;28;20075;-77
2022/01/15 01:03:27;;;;;;;124.50;22.65;;;;;;;;;;5049509;28;20082;-77
2022/01/15 01:05:52;;;;;;;129.60;23.17;;;;;;;;;;5054812;28;20044;-77
2022/01/15 01:08:18;;;;;;;141.55;23.90;;;;;;;;;;5053012;28;20036;-77
2022/01/15 01:10:50;;;;;;;218.93;24.63;;;;;;;;;;5049210;28;20033;-77
2022/01/15 01:13:40;;;;;;;166.50;23.30;;;;;;;;;;5049277;28;20057;-77
2022/01/15 01:24:18;;;;;;;99.38;20.02;;;;;;;;;;5055070;28;19986;-77
2022/01/15 01:26:50;;;;;;;149.05;21.52;;;;;;;;;;5056284;28;20087;-77
2022/01/15 01:34:41;;;;;;;100.45;19.08;;;;;;;;;;5033902;28;20041;-77
2022/01/15 01:37:16;;;;;;;105.05;18.08;;;;;;;;;;5054526;28;20033;-77
2022/01/15 01:39:48;;;;;;;102.70;18.27;;;;;;;;;;5055144;28;20066;-77
2022/01/15 01:42:36;;;;;;;140.68;20.30;;;;;;;;;;5049814;28;20101;-77
2022/01/15 01:45:10;;;;;;;94.10;18.15;;;;;;;;;;5052331;28;20424;-77
2022/01/15 01:47:40;;;;;;;75.38;19.42;;;;;;;;;;5050048;28;20032;-77
2022/01/15 01:50:13;;;;;;;105.45;18.67;;;;;;;;;;5031637;28;20069;-77
2022/01/15 01:52:39;;;;;;;116.82;18.23;;;;;;;;;;5050882;28;20053;-77
2022/01/15 01:55:06;;;;;;;93.20;14.40;;;;;;;;;;5047294;28;20030;-77
2022/01/15 01:57:32;;;;;;;136.13;18.13;;;;;;;;;;5052778;28;20033;-77
2022/01/15 01:59:57;;;;;;;85.57;17.13;;;;;;;;;;5050759;28;20063;-77
2022/01/15 02:02:22;;;;;;;92.32;16.90;;;;;;;;;;5035453;28;20495;-77
2022/01/15 02:04:48;;;;;;;132.40;17.88;;;;;;;;;;5050477;28;20565;-76
2022/01/15 02:07:14;;;;;;;106.18;16.67;;;;;;;;;;5055354;28;20225;-77
2022/01/15 02:09:40;;;;;;;64.82;16.90;;;;;;;;;;5051858;28;20071;-77
2022/01/15 02:12:06;;;;;;;84.05;15.82;;;;;;;;;;5057960;28;20047;-77
2022/01/15 02:14:31;;;;;;;103.78;18.00;;;;;;;;;;5038697;28;20405;-77
2022/01/15 02:16:58;;;;;;;115.55;16.17;;;;;;;;;;5051368;28;20024;-77
2022/01/15 02:19:34;;;;;;;139.95;18.25;;;;;;;;;;5034408;28;20098;-77
2022/01/15 02:24:44;;;;;;;91.05;16.10;;;;;;;;;;5051917;28;20638;-77
2022/01/15 02:27:09;;;;;;;166.93;16.35;;;;;;;;;;5054460;28;20107;-77
2022/01/15 02:29:35;;;;;;;104.97;15.95;;;;;;;;;;5058354;28;20845;-77
2022/01/15 02:32:00;;;;;;;89.47;16.55;;;;;;;;;;5056898;28;20032;-77
2022/01/15 02:34:25;;;;;;;81.20;14.23;;;;;;;;;;5037652;28;20544;-77
2022/01/15 02:36:51;;;;;;;100.72;16.88;;;;;;;;;;5054881;28;20115;-77
2022/01/15 02:39:16;;;;;;;82.18;15.20;;;;;;;;;;5056109;28;20047;-77
2022/01/15 02:41:42;;;;;;;57.85;16.08;;;;;;;;;;5055995;28;20454;-77
2022/01/15 02:44:14;;;;;;;34.15;10.40;;;;;;;;;;5058300;28;20811;-77
2022/01/15 02:49:14;;;;;;;73.88;15.80;;;;;;;;;;5055692;28;20036;-77
2022/01/15 02:51:39;;;;;;;88.57;15.95;;;;;;;;;;5058871;28;20053;-77
2022/01/15 02:54:05;;;;;;;108.00;17.80;;;;;;;;;;5058991;28;20048;-77
2022/01/15 02:56:39;;;;;;;70.10;14.40;;;;;;;;;;5057563;28;20478;-77
2022/01/15 02:59:08;;;;;;;97.25;16.60;;;;;;;;;;5042466;28;20028;-77
2022/01/15 03:01:33;;;;;;;82.82;15.82;;;;;;;;;;5055245;28;20051;-77
2022/01/15 03:04:00;;;;;;;71.57;16.75;;;;;;;;;;5055771;28;20033;-77
2022/01/15 03:06:26;;;;;;;60.33;15.75;;;;;;;;;;5058911;28;20032;-77
2022/01/15 03:08:52;;;;;;;91.95;15.70;;;;;;;;;;5038738;28;20507;-77
2022/01/15 03:11:19;;;;;;;95.05;17.17;;;;;;;;;;5054824;28;20045;-77
2022/01/15 03:13:46;;;;;;;68.82;14.70;;;;;;;;;;5055575;28;20469;-77
2022/01/15 03:16:16;;;;;;;101.95;15.75;;;;;;;;;;5056225;28;20037;-77
2022/01/15 03:18:42;;;;;;;71.05;12.95;;;;;;;;;;5055445;28;20037;-77
2022/01/15 03:21:07;;;;;;;72.25;15.35;;;;;;;;;;5058107;28;20044;-76
2022/01/15 03:23:33;;;;;;;90.88;14.85;;;;;;;;;;5056146;28;20024;-76
2022/01/15 03:25:58;;;;;;;120.80;17.13;;;;;;;;;;5058274;28;20063;-76
2022/01/15 03:28:24;;;;;;;62.70;14.88;;;;;;;;;;5056524;28;20045;-77
2022/01/15 03:30:49;;;;;;;95.32;14.75;;;;;;;;;;5056280;28;20044;-77
2022/01/15 03:33:15;;;;;;;61.08;15.85;;;;;;;;;;5059310;28;20521;-77
2022/01/15 03:35:40;;;;;;;70.20;14.50;;;;;;;;;;5049203;28;20031;-77
2022/01/15 03:38:06;;;;;;;62.70;11.57;;;;;;;;;;5049636;28;20066;-77
2022/01/15 03:40:32;;;;;;;77.03;15.10;;;;;;;;;;5058136;28;20038;-77
2022/01/15 03:42:58;;;;;;;81.43;16.70;;;;;;;;;;5056087;28;20041;-77
2022/01/15 03:45:24;;;;;;;67.35;15.65;;;;;;;;;;5055527;28;20044;-76
2022/01/15 03:47:49;;;;;;;54.58;16.48;;;;;;;;;;5057033;28;20036;-76
2022/01/15 03:50:16;;;;;;;66.20;16.00;;;;;;;;;;5056313;28;20032;-76
2022/01/15 03:52:42;;;;;;;68.97;18.08;;;;;;;;;;5038010;28;20114;-76
2022/01/15 03:55:10;;;;;;;72.57;17.98;;;;;;;;;;5054144;28;20045;-78
2022/01/15 03:57:36;;;;;;;76.35;15.75;;;;;;;;;;5050136;28;20037;-77
2022/01/15 04:00:05;;;;;;;70.45;16.77;;;;;;;;;;5035666;28;20048;-76
2022/01/15 04:02:30;;;;;;;83.22;16.75;;;;;;;;;;5054147;28;20074;-77
2022/01/15 04:04:55;;;;;;;98.53;18.88;;;;;;;;;;5056357;28;20804;-76
2022/01/15 04:07:21;;;;;;;56.28;17.13;;;;;;;;;;5055923;28;20514;-76
2022/01/15 04:09:46;;;;;;;73.35;17.35;;;;;;;;;;5037727;28;20036;-77
2022/01/15 04:12:11;;;;;;;57.05;18.98;;;;;;;;;;5056310;28;20133;-76
2022/01/15 04:14:37;;;;;;;59.55;16.50;;;;;;;;;;5053546;28;20024;-77
2022/01/15 04:17:03;;;;;;;90.22;18.15;;;;;;;;;;5055460;28;20063;-76
2022/01/15 04:19:29;;;;;;;61.28;17.90;;;;;;;;;;5052682;28;20094;-77
2022/01/15 04:21:55;;;;;;;67.80;18.83;;;;;;;;;;5053779;28;20033;-76
2022/01/15 04:24:20;;;;;;;58.35;16.52;;;;;;;;;;5053408;28;20033;-77
2022/01/15 04:26:47;;;;;;;48.13;17.50;;;;;;;;;;5053247;28;20067;-77
2022/01/15 04:29:15;;;;;;;56.30;17.92;;;;;;;;;;5052039;28;20024;-77
2022/01/15 04:31:50;;;;;;;55.58;17.02;;;;;;;;;;5052644;28;20040;-76
2022/01/15 04:34:22;;;;;;;69.15;17.73;;;;;;;;;;5034062;28;20041;-77
2022/01/15 04:36:49;;;;;;;67.20;19.98;;;;;;;;;;5055370;28;20108;-77
2022/01/15 04:39:15;;;;;;;76.80;19.13;;;;;;;;;;5056158;28;20060;-77
2022/01/15 04:41:40;;;;;;;52.33;17.27;;;;;;;;;;5057214;28;20043;-77
2022/01/15 04:44:07;;;;;;;63.13;17.15;;;;;;;;;;5055460;28;20622;-76
2022/01/15 04:46:33;;;;;;;89.18;18.75;;;;;;;;;;5059348;28;20056;-76
2022/01/15 04:48:58;;;;;;;76.13;17.88;;;;;;;;;;5053053;28;20040;-77
2022/01/15 04:51:23;;;;;;;57.42;16.88;;;;;;;;;;5054946;28;20037;-77
2022/01/15 04:53:49;;;;;;;87.45;19.00;;;;;;;;;;5054226;28;20041;-77
2022/01/15 04:56:14;;;;;;;79.28;16.95;;;;;;;;;;5053059;28;20017;-77
2022/01/15 04:58:39;;;;;;;47.30;15.70;;;;;;;;;;5057095;28;20048;-77
2022/01/15 05:01:05;;;;;;;100.18;17.63;;;;;;;;;;5056305;28;20040;-76
2022/01/15 05:03:32;;;;;;;72.95;16.70;;;;;;;;;;5054882;28;20176;-77
2022/01/15 05:05:57;;;;;;;74.78;15.82;;;;;;;;;;5050369;28;20094;-77
2022/01/15 05:08:23;;;;;;;101.47;17.90;;;;;;;;;;5031733;28;20028;-77
2022/01/15 05:10:48;;;;;;;86.28;17.35;;;;;;;;;;5054497;28;20016;-76
2022/01/15 05:13:14;;;;;;;79.43;16.00;;;;;;;;;;5053778;28;20037;-77
2022/01/15 05:15:43;;;;;;;83.25;16.85;;;;;;;;;;5055892;28;20576;-77
2022/01/15 05:18:09;;;;;;;81.78;14.60;;;;;;;;;;5055428;28;20036;-77
2022/01/15 05:20:36;;;;;;;122.30;18.02;;;;;;;;;;5055833;28;20442;-76
2022/01/15 05:23:02;;;;;;;109.68;17.55;;;;;;;;;;5038921;28;20099;-77
2022/01/15 05:25:27;;;;;;;139.02;18.45;;;;;;;;;;5050487;28;20803;-77
2022/01/15 05:27:53;;;;;;;84.88;16.08;;;;;;;;;;5059663;28;20508;-77
2022/01/15 05:30:18;;;;;;;80.50;17.27;;;;;;;;;;5055344;28;20033;-77
2022/01/15 05:32:43;;;;;;;53.83;15.52;;;;;;;;;;5052983;28;20040;-77
2022/01/15 05:35:10;;;;;;;65.85;14.85;;;;;;;;;;5053661;28;20017;-77
2022/01/15 05:37:36;;;;;;;91.50;17.33;;;;;;;;;;5054154;28;20052;-77
2022/01/15 05:40:03;;;;;;;83.07;15.40;;;;;;;;;;5055038;28;20043;-77
2022/01/15 05:42:28;;;;;;;86.75;17.25;;;;;;;;;;5035491;28;20128;-77
2022/01/15 05:44:54;;;;;;;108.35;17.83;;;;;;;;;;5054226;28;20108;-77
2022/01/15 05:47:19;;;;;;;87.13;16.80;;;;;;;;;;5052813;28;20062;-77
2022/01/15 05:49:45;;;;;;;72.55;14.73;;;;;;;;;;5052905;28;20129;-76
2022/01/15 05:52:10;;;;;;;59.00;17.02;;;;;;;;;;5051359;28;20036;-77
2022/01/15 05:54:35;;;;;;;59.80;16.85;;;;;;;;;;5053903;28;20044;-77
2022/01/15 05:57:01;;;;;;;51.08;15.93;;;;;;;;;;5054003;28;20044;-77
2022/01/15 05:59:26;;;;;;;54.95;17.10;;;;;;;;;;5054795;28;20028;-77
2022/01/15 06:01:52;;;;;;;46.13;16.70;;;;;;;;;;5055310;28;20032;-77
2022/01/15 06:04:17;;;;;;;39.50;16.23;;;;;;;;;;5051923;28;20091;-76
2022/01/15 06:06:42;;;;;;;64.20;16.27;;;;;;;;;;5050938;28;20060;-77
2022/01/15 06:09:08;;;;;;;74.85;17.38;;;;;;;;;;5051692;28;20041;-76
2022/01/15 06:11:39;;;;;;;63.58;16.17;;;;;;;;;;5052225;28;20044;-77
2022/01/15 06:14:04;;;;;;;47.90;15.93;;;;;;;;;;5051214;28;20028;-76
2022/01/15 06:16:30;;;;;;;65.00;17.15;;;;;;;;;;5054711;28;20052;-77
2022/01/15 06:18:55;;;;;;;65.75;16.08;;;;;;;;;;5052558;28;20087;-77
2022/01/15 06:21:20;;;;;;;57.63;15.57;;;;;;;;;;5053638;28;20133;-76
2022/01/15 06:23:46;;;;;;;65.00;16.25;;;;;;;;;;5055962;28;20656;-77
2022/01/15 06:26:12;;;;;;;72.05;16.75;;;;;;;;;;5053361;28;20031;-77
2022/01/15 06:28:37;;;;;;;97.85;15.82;;;;;;;;;;5051856;28;20040;-77
2022/01/15 06:31:03;;;;;;;72.57;17.25;;;;;;;;;;5052691;28;20040;-77
2022/01/15 06:33:28;;;;;;;84.75;16.48;;;;;;;;;;5056079;28;20612;-77
2022/01/15 06:35:54;;;;;;;72.20;16.48;;;;;;;;;;5056861;28;20398;-76
2022/01/15 06:38:19;;;;;;;80.15;16.83;;;;;;;;;;5055373;28;20025;-76
2022/01/15 06:40:44;;;;;;;81.53;16.25;;;;;;;;;;5052469;28;20032;-76
2022/01/15 06:43:10;;;;;;;61.83;16.10;;;;;;;;;;5056601;28;20116;-76
2022/01/15 06:45:36;;;;;;;83.75;17.38;;;;;;;;;;5052979;28;20132;-76
2022/01/15 06:48:02;;;;;;;52.95;16.33;;;;;;;;;;5051319;28;20048;-76
2022/01/15 06:50:28;;;;;;;54.53;15.95;;;;;;;;;;5052877;28;20025;-76
2022/01/15 06:52:54;;;;;;;64.68;16.45;;;;;;;;;;5052485;28;20031;-76
2022/01/15 06:55:20;;;;;;;76.95;17.08;;;;;;;;;;5051104;28;20029;-76
2022/01/15 06:57:45;;;;;;;76.13;16.60;;;;;;;;;;5051866;28;20106;-76
2022/01/15 07:00:11;;;;;;;113.38;15.63;;;;;;;;;;5053032;28;20037;-76
2022/01/15 07:02:38;;;;;;;132.30;16.13;;;;;;;;;;5032760;28;20025;-77
2022/01/15 07:05:05;;;;;;;168.85;16.52;;;;;;;;;;5057338;28;20759;-77
2022/01/15 07:07:30;;;;;;;116.05;16.20;;;;;;;;;;5053904;28;20062;-76
2022/01/15 07:09:56;;;;;;;73.80;15.05;;;;;;;;;;5055889;28;20083;-77
2022/01/15 07:12:21;;;;;;;56.60;14.65;;;;;;;;;;5062043;28;20087;-76
2022/01/15 07:14:46;;;;;;;89.10;15.18;;;;;;;;;;5053896;28;20036;-76
2022/01/15 07:17:12;;;;;;;82.15;15.60;;;;;;;;;;5057007;28;20025;-77
2022/01/15 07:19:37;;;;;;;89.07;16.60;;;;;;;;;;5055828;28;20040;-76
2022/01/15 07:22:04;;;;;;;67.05;14.93;;;;;;;;;;5054484;28;20039;-76
2022/01/15 07:24:30;;;;;;;46.35;14.48;;;;;;;;;;5055089;28;20653;-77
2022/01/15 07:26:55;;;;;;;56.55;13.38;;;;;;;;;;5056983;28;20037;-77
2022/01/15 07:29:23;;;;;;;44.90;14.45;;;;;;;;;;5057849;28;20021;-76
2022/01/15 07:31:49;;;;;;;42.45;14.40;;;;;;;;;;5059207;28;20050;-77
2022/01/15 07:34:15;;;;;;;85.47;13.98;;;;;;;;;;5060290;28;20029;-76
2022/01/15 07:36:40;;;;;;;79.65;15.75;;;;;;;;;;5050759;28;20577;-77
2022/01/15 07:39:07;;;;;;;50.17;14.02;;;;;;;;;;5058321;28;20072;-76
2022/01/15 07:41:33;;;;;;;51.38;13.77;;;;;;;;;;5040016;28;20040;-77
2022/01/15 07:43:58;;;;;;;54.38;15.02;;;;;;;;;;5055399;28;20021;-77
2022/01/15 07:46:25;;;;;;;53.95;14.68;;;;;;;;;;5054768;28;20436;-77
2022/01/15 07:48:50;;;;;;;90.63;16.60;;;;;;;;;;5054032;28;20404;-77
2022/01/15 07:51:15;;;;;;;83.25;12.82;;;;;;;;;;5054425;28;20045;-77
2022/01/15 07:53:41;;;;;;;64.03;12.50;;;;;;;;;;5056482;28;20025;-77
2022/01/15 07:56:06;;;;;;;48.33;12.80;;;;;;;;;;5056913;28;20028;-77
2022/01/15 07:58:32;;;;;;;86.15;13.75;;;;;;;;;;5057118;28;20049;-77
2022/01/15 08:00:57;;;;;;;48.95;12.95;;;;;;;;;;5056134;28;20051;-77
2022/01/15 08:03:22;;;;;;;41.42;12.68;;;;;;;;;;5058772;28;20039;-76
2022/01/15 08:05:48;;;;;;;60.80;13.80;;;;;;;;;;5060602;28;20036;-76
2022/01/15 08:08:13;;;;;;;88.38;13.07;;;;;;;;;;5053692;28;20035;-77
2022/01/15 08:10:38;;;;;;;40.65;11.93;;;;;;;;;;5052955;28;20112;-76
2022/01/15 08:13:04;;;;;;;50.63;12.75;;;;;;;;;;5036115;28;20036;-76
2022/01/15 08:15:31;;;;;;;53.67;12.70;;;;;;;;;;5053189;28;20578;-76
2022/01/15 08:17:57;;;;;;;72.75;13.02;;;;;;;;;;5056242;28;20485;-76
2022/01/15 08:20:23;;;;;;;43.35;11.73;;;;;;;;;;5052989;28;20486;-77
2022/01/15 08:22:50;;;;;;;38.28;11.65;;;;;;;;;;5055170;28;20032;-76
2022/01/15 08:25:16;;;;;;;34.38;13.35;;;;;;;;;;5055722;28;20296;-77
2022/01/15 08:27:42;;;;;;;53.78;13.25;;;;;;;;;;5067900;28;20085;-77
2022/01/15 08:30:08;;;;;;;37.08;9.02;;;;;;;;;;5064191;28;20035;-76
2022/01/15 08:32:34;;;;;;;61.38;12.93;;;;;;;;;;5054245;28;20025;-75
2022/01/15 08:34:59;;;;;;;57.92;13.50;;;;;;;;;;5053808;28;20395;-75
2022/01/15 08:37:25;;;;;;;59.05;14.05;;;;;;;;;;5052887;28;20441;-75
2022/01/15 08:39:50;;;;;;;52.30;12.38;;;;;;;;;;5054137;28;20083;-75
2022/01/15 08:42:16;;;;;;;45.47;11.32;;;;;;;;;;5033466;28;20136;-75
2022/01/15 08:44:43;;;;;;;41.13;12.55;;;;;;;;;;5048183;28;20029;-86
2022/01/15 08:47:09;;;;;;;39.70;11.50;;;;;;;;;;5052567;28;20059;-87
2022/01/15 08:49:36;;;;;;;76.78;12.00;;;;;;;;;;5035589;28;20037;-75
2022/01/15 08:52:01;;;;;;;98.70;12.52;;;;;;;;;;5048825;28;20044;-84
2022/01/15 08:54:27;;;;;;;82.60;12.40;;;;;;;;;;5054812;28;20044;-85
2022/01/15 08:56:52;;;;;;;51.38;12.23;;;;;;;;;;5049912;28;20564;-77
2022/01/15 08:59:18;;;;;;;109.05;14.27;;;;;;;;;;5052110;28;20036;-81
2022/01/15 09:01:44;;;;;;;57.70;13.18;;;;;;;;;;5050774;28;20044;-76
2022/01/15 09:04:09;;;;;;;38.33;11.60;;;;;;;;;;5050561;28;20063;-82
2022/01/15 09:06:35;;;;;;;29.27;12.07;;;;;;;;;;5030686;28;20029;-83
2022/01/15 09:09:00;;;;;;;35.70;12.43;;;;;;;;;;5053293;28;20052;-82
2022/01/15 09:11:25;;;;;;;33.92;12.20;;;;;;;;;;5051847;28;20048;-79
2022/01/15 09:13:51;;;;;;;33.80;11.70;;;;;;;;;;5050684;28;20965;-79
2022/01/15 09:16:16;;;;;;;29.25;11.77;;;;;;;;;;5053009;28;20037;-77
2022/01/15 09:18:41;;;;;;;25.77;11.73;;;;;;;;;;5050111;28;20056;-89
2022/01/15 09:21:07;;;;;;;39.17;11.70;;;;;;;;;;5049181;28;20040;-76
2022/01/15 09:23:33;;;;;;;33.75;12.68;;;;;;;;;;5049362;28;20029;-89
2022/01/15 09:25:59;;;;;;;26.20;11.48;;;;;;;;;;5041861;28;20033;-87
2022/01/15 09:31:11;;;;;;;49.85;11.80;;;;;;;;;;5022787;28;20032;-87
2022/01/15 09:33:37;;;;;;;36.80;12.10;;;;;;;;;;5035474;28;20044;-89
2022/01/15 09:36:03;;;;;;;29.63;11.32;;;;;;;;;;5034334;28;20430;-75
2022/01/15 09:38:30;;;;;;;58.97;12.85;;;;;;;;;;5052834;28;20037;-85
2022/01/15 09:40:55;;;;;;;68.25;13.15;;;;;;;;;;5034829;28;20027;-81
2022/01/15 09:43:21;;;;;;;52.50;13.05;;;;;;;;;;5052506;28;20470;-82
2022/01/15 09:45:47;;;;;;;33.85;13.00;;;;;;;;;;5051719;28;20442;-80
2022/01/15 09:48:14;;;;;;;33.88;12.95;;;;;;;;;;5052273;28;20044;-81
2022/01/15 09:50:43;;;;;;;52.38;13.45;;;;;;;;;;5050684;28;20076;-76
2022/01/15 10:01:39;;;;;;;28.25;11.80;;;;;;;;;;5082177;27;20433;-85
2022/01/15 10:04:05;;;;;;;52.20;17.55;;;;;;;;;;5073958;28;20044;-83
2022/01/15 10:06:30;;;;;;;35.90;14.07;;;;;;;;;;5070429;28;20583;-75
2022/01/15 10:09:05;;;;;;;42.45;13.35;;;;;;;;;;5072258;28;20143;-76
2022/01/15 10:11:41;;;;;;;38.10;13.82;;;;;;;;;;5070367;28;20654;-75
2022/01/15 10:14:31;;;;;;;41.60;14.20;;;;;;;;;;5074026;28;20032;-83
2022/01/15 10:16:59;;;;;;;27.00;11.23;;;;;;;;;;5070991;28;20135;-78
2022/01/15 10:19:37;;;;;;;25.38;11.85;;;;;;;;;;5071744;28;20036;-74
2022/01/15 10:22:07;;;;;;;32.40;12.43;;;;;;;;;;5071480;28;20044;-78
2022/01/15 10:24:32;;;;;;;30.98;13.02;;;;;;;;;;5069950;28;20528;-85
2022/01/15 10:27:23;;;;;;;30.80;13.55;;;;;;;;;;5072900;28;20048;-78
2022/01/15 10:30:08;;;;;;;28.83;12.93;;;;;;;;;;5075306;28;20048;-79
2022/01/15 10:32:37;;;;;;;27.75;12.55;;;;;;;;;;5079874;28;20119;-81
2022/01/15 10:35:15;;;;;;;27.83;12.73;;;;;;;;;;5081153;28;20024;-82
2022/01/15 10:38:00;;;;;;;30.27;12.65;;;;;;;;;;5104029;27;20417;-82
2022/01/15 10:40:33;;;;;;;26.10;12.02;;;;;;;;;;5092493;28;20036;-83
2022/01/15 10:42:59;;;;;;;26.45;12.18;;;;;;;;;;5092568;28;20036;-82
2022/01/15 10:45:29;;;;;;;30.25;13.73;;;;;;;;;;5092181;28;20036;-82
2022/01/15 10:47:56;;;;;;;32.13;13.35;;;;;;;;;;5097134;28;20128;-84
2022/01/15 10:50:27;;;;;;;32.40;14.80;;;;;;;;;;5093940;28;20032;-85
2022/01/15 10:52:54;;;;;;;29.73;13.68;;;;;;;;;;5100675;28;20055;-77
2022/01/15 10:55:26;;;;;;;31.15;14.10;;;;;;;;;;5089649;28;20417;-78
2022/01/15 10:58:00;;;;;;;38.90;17.00;;;;;;;;;;5083066;28;20077;-73
2022/01/15 11:00:28;;;;;;;29.02;12.45;;;;;;;;;;5100373;28;20043;-72
2022/01/15 11:02:58;;;;;;;29.83;14.07;;;;;;;;;;5089299;28;20417;-82
2022/01/15 11:05:38;;;;;;;29.98;13.68;;;;;;;;;;5098534;28;20023;-78
2022/01/15 11:08:28;;;;;;;31.90;13.65;;;;;;;;;;5101781;28;20023;-78
2022/01/15 11:11:04;;;;;;;33.47;14.65;;;;;;;;;;5099642;28;20040;-77
2022/01/15 11:13:35;;;;;;;40.25;16.25;;;;;;;;;;5086014;28;20107;-79
2022/01/15 11:16:07;;;;;;;33.90;14.82;;;;;;;;;;5078076;28;20032;-77
2022/01/15 11:18:35;;;;;;;40.00;14.98;;;;;;;;;;5085800;28;20865;-77
2022/01/15 11:21:03;;;;;;;41.42;16.88;;;;;;;;;;5085274;28;20040;-77
2022/01/15 11:23:30;;;;;;;34.20;16.30;;;;;;;;;;5071250;28;20079;-77
2022/01/15 11:25:58;;;;;;;43.80;18.02;;;;;;;;;;5078807;28;20035;-77
2022/01/15 11:28:29;;;;;;;34.10;16.10;;;;;;;;;;5085574;28;20493;-77
2022/01/15 11:31:01;;;;;;;35.85;16.42;;;;;;;;;;5086302;28;20032;-77
2022/01/15 11:33:32;;;;;;;36.10;14.85;;;;;;;;;;5084571;28;20132;-77
2022/01/15 11:35:57;;;;;;;35.20;14.57;;;;;;;;;;5086095;28;20043;-77
2022/01/15 11:38:46;;;;;;;34.50;15.32;;;;;;;;;;5080895;28;20039;-77
2022/01/15 11:41:41;;;;;;;35.95;16.08;;;;;;;;;;5086462;28;20786;-78
2022/01/15 11:44:09;;;;;;;34.88;16.52;;;;;;;;;;5085763;28;20066;-78
2022/01/15 11:46:47;;;;;;;34.17;15.82;;;;;;;;;;5084528;28;20036;-78
2022/01/15 11:49:40;;;;;;;35.88;16.02;;;;;;;;;;5084568;28;20398;-78
2022/01/15 11:52:05;;;;;;;37.42;16.33;;;;;;;;;;5092275;28;20065;-78
2022/01/15 11:54:31;;;;;;;36.97;16.45;;;;;;;;;;5094376;28;20044;-79
2022/01/15 11:57:00;;;;;;;33.78;16.92;;;;;;;;;;5078523;28;20517;-79
2022/01/15 11:59:25;;;;;;;36.33;16.25;;;;;;;;;;5078018;28;20020;-78
2022/01/15 12:01:55;;;;;;;38.58;17.25;;;;;;;;;;5085272;28;20036;-79
2022/01/15 12:04:27;;;;;;;36.67;16.02;;;;;;;;;;5086196;28;20051;-78
2022/01/15 12:07:02;;;;;;;30.98;14.55;;;;;;;;;;5077016;28;20039;-78
2022/01/15 12:09:47;;;;;;;32.40;14.70;;;;;;;;;;5067226;28;20047;-78
2022/01/15 12:14:57;;;;;;;40.50;16.45;;;;;;;;;;5054996;28;20889;-77
2022/01/15 12:17:36;;;;;;;35.25;16.45;;;;;;;;;;5053874;28;20506;-79
2022/01/15 12:20:27;;;;;;;39.75;16.95;;;;;;;;;;5051215;28;20766;-81
2022/01/15 12:22:58;;;;;;;33.78;15.57;;;;;;;;;;5050036;28;20060;-76
2022/01/15 12:25:27;;;;;;;36.15;16.58;;;;;;;;;;5057226;28;20565;-78
2022/01/15 12:27:55;;;;;;;37.45;17.35;;;;;;;;;;5055012;28;20040;-79
2022/01/15 12:30:27;;;;;;;42.10;18.27;;;;;;;;;;5061832;28;20048;-78
2022/01/15 12:32:54;;;;;;;33.28;15.80;;;;;;;;;;5067702;28;20218;-79
2022/01/15 12:35:22;;;;;;;33.70;17.42;;;;;;;;;;5063772;28;20029;-79
2022/01/15 12:37:59;;;;;;;35.90;16.42;;;;;;;;;;5084445;28;20048;-79
2022/01/15 12:40:33;;;;;;;38.92;17.35;;;;;;;;;;5051522;28;20040;-79
2022/01/15 12:43:16;;;;;;;40.20;17.65;;;;;;;;;;5055061;28;20131;-79
2022/01/15 12:45:42;;;;;;;40.08;19.50;;;;;;;;;;5057438;28;20040;-78
2022/01/15 12:48:13;;;;;;;37.25;17.90;;;;;;;;;;5065661;28;20051;-79
2022/01/15 12:50:46;;;;;;;37.75;16.55;;;;;;;;;;5050682;28;20410;-80
2022/01/15 12:53:12;;;;;;;34.55;17.17;;;;;;;;;;5063775;28;20028;-80
2022/01/15 12:55:39;;;;;;;35.10;16.83;;;;;;;;;;5058892;28;20131;-80
2022/01/15 12:58:08;;;;;;;34.90;17.13;;;;;;;;;;5060777;28;20089;-82
2022/01/15 13:00:36;;;;;;;36.20;17.55;;;;;;;;;;5065272;28;20520;-79
2022/01/15 13:03:08;;;;;;;35.50;17.35;;;;;;;;;;5053608;28;20164;-83
2022/01/15 13:06:00;;;;;;;44.25;19.98;;;;;;;;;;5048319;28;20044;-88
2022/01/15 13:08:33;;;;;;;43.08;18.60;;;;;;;;;;5055123;28;20036;-76
2022/01/15 13:11:48;;;;;;;34.03;16.80;;;;;;;;;;5053218;28;20052;-77
2022/01/15 13:13:52;;;;;;;39.47;18.42;;;;;;;;;;5050927;28;20323;-83
2022/01/15 13:16:30;;;;;;;38.55;17.40;;;;;;;;;;5055097;28;20040;-82
2022/01/15 13:18:58;;;;;;;36.90;16.95;;;;;;;;;;5064976;28;20066;-81
2022/01/15 13:21:26;;;;;;;43.38;18.35;;;;;;;;;;5063909;28;20430;-80
2022/01/15 13:24:01;;;;;;;35.10;17.23;;;;;;;;;;5050863;28;20036;-75
2022/01/15 13:26:26;;;;;;;41.78;18.30;;;;;;;;;;5046298;28;20028;-76
2022/01/15 13:28:54;;;;;;;35.53;16.55;;;;;;;;;;5069082;28;20051;-74
2022/01/15 13:31:20;;;;;;;37.45;17.00;;;;;;;;;;5065594;28;20039;-74
2022/01/15 13:33:46;;;;;;;40.72;18.55;;;;;;;;;;5061960;28;20045;-74
2022/01/15 13:36:13;;;;;;;40.42;17.05;;;;;;;;;;5053355;28;20637;-71
2022/01/15 13:38:43;;;;;;;36.00;17.20;;;;;;;;;;5050274;28;20043;-79
2022/01/15 13:41:12;;;;;;;40.05;18.35;;;;;;;;;;5052930;28;20516;-79
2022/01/15 13:43:38;;;;;;;37.83;18.35;;;;;;;;;;5056498;28;20079;-80
2022/01/15 13:46:06;;;;;;;39.92;17.77;;;;;;;;;;5061623;28;20078;-80
2022/01/15 13:48:32;;;;;;;30.95;16.00;;;;;;;;;;5061610;28;20463;-78
2022/01/15 13:53:45;;;;;;;40.05;17.45;;;;;;;;;;5050566;28;20050;-80
2022/01/15 13:56:26;;;;;;;38.53;19.52;;;;;;;;;;5052115;28;20754;-79
2022/01/15 13:59:00;;;;;;;37.55;18.05;;;;;;;;;;5056059;28;20063;-81
2022/01/15 14:01:32;;;;;;;37.78;17.75;;;;;;;;;;5081863;28;20039;-80
2022/01/15 14:04:19;;;;;;;37.08;18.48;;;;;;;;;;5082752;28;20050;-80
2022/01/15 14:06:44;;;;;;;38.38;17.13;;;;;;;;;;5077727;28;20123;-80
2022/01/15 14:09:15;;;;;;;39.00;17.50;;;;;;;;;;5063471;28;20169;-80
2022/01/15 14:11:53;;;;;;;39.25;17.40;;;;;;;;;;5065740;28;20021;-80
2022/01/15 14:14:18;;;;;;;34.80;17.05;;;;;;;;;;5061073;28;20184;-80
2022/01/15 14:16:43;;;;;;;38.50;18.48;;;;;;;;;;5051683;28;20470;-80
2022/01/15 14:21:55;;;;;;;45.97;19.35;;;;;;;;;;5065436;28;20482;-80
2022/01/15 14:24:25;;;;;;;37.20;17.23;;;;;;;;;;5059094;28;20037;-80
2022/01/15 14:26:56;;;;;;;39.75;18.65;;;;;;;;;;5058697;28;20043;-80
2022/01/15 14:29:21;;;;;;;34.47;17.75;;;;;;;;;;5065148;28;20028;-80
2022/01/15 14:31:47;;;;;;;35.65;17.80;;;;;;;;;;5064936;28;20169;-80
2022/01/15 14:34:12;;;;;;;38.80;17.20;;;;;;;;;;5065278;28;20040;-80
2022/01/15 14:36:38;;;;;;;40.95;18.13;;;;;;;;;;5065365;28;20041;-80
2022/01/15 14:39:05;;;;;;;44.00;18.63;;;;;;;;;;5063926;28;20032;-80
2022/01/15 14:41:32;;;;;;;37.95;18.48;;;;;;;;;;5063164;28;20089;-80
2022/01/15 14:43:57;;;;;;;41.25;18.00;;;;;;;;;;5061760;28;20482;-80
2022/01/15 14:46:23;;;;;;;39.92;18.23;;;;;;;;;;5057645;28;20116;-79
2022/01/15 14:48:48;;;;;;;46.55;20.35;;;;;;;;;;5066940;28;20429;-80
2022/01/15 14:51:16;;;;;;;37.35;18.60;;;;;;;;;;5068328;28;20418;-80
2022/01/15 14:53:42;;;;;;;41.17;18.65;;;;;;;;;;5076343;28;20028;-80
2022/01/15 14:56:07;;;;;;;39.53;17.50;;;;;;;;;;5069243;28;20036;-80
2022/01/15 14:58:33;;;;;;;40.83;19.52;;;;;;;;;;5087570;28;20524;-80
2022/01/15 15:00:58;;;;;;;37.50;19.17;;;;;;;;;;5076711;28;20093;-80